Latest Weather Observations for Mount Hotham

IDV60801

Issued at 3:22 pm EDT Saturday 29 February 2020 (issued every 10 minutes, with the page automatically refreshed every 10 minutes)

About weather observations | Map of weather stations | Latest weather observations for VIC | Other Formats
Station Details ID: 083085 Name: MOUNT HOTHAM Lat: -36.98 Lon: 147.13 Height: 1849.0 m
Data from the previous 72 hours. | See also: Recent months at Mount Hotham
Date/Time
EDT
Temp
°C
App
Temp
°C
Dew
Point
°C
Rel
Hum
%
Delta-T
°C
Wind Press
QNH
hPa
Press
MSL
hPa
Rain since
9am
mm
Dir  Spd
km/h
Gust
km/h
Spd
kts
Gust
kts
29/03:00pm 14.6 10.8 7.4 62 3.9 N 17 28 9 15 - - -
29/02:30pm 14.1 10.3 7.4 64 3.6 NNW 17 24 9 13 - - -
29/02:00pm 13.7 9.5 8.1 69 3.1 NNW 20 32 11 17 - - -
29/01:30pm 13.9 9.4 8.7 71 2.9 NNW 22 32 12 17 - - -
29/01:00pm 13.3 8.9 8.8 74 2.5 NNW 22 30 12 16 - - -
29/12:30pm 11.7 6.4 7.0 73 2.5 NNW 24 33 13 18 - - -
29/12:00pm 12.2 6.9 6.7 69 2.9 NNW 24 33 13 18 - - -
29/11:30am 10.7 5.0 5.0 68 2.9 N 24 32 13 17 - - -
29/11:00am 9.9 4.1 4.5 69 2.7 NNW 24 30 13 16 - - -
29/10:30am 9.5 3.8 4.9 73 2.3 NNW 24 32 13 17 - - -
29/10:00am 9.2 3.3 5.6 78 1.8 NNW 26 35 14 19 - - -
29/09:30am 8.9 2.9 5.3 78 1.8 NNW 26 35 14 19 - - -
29/09:00am 8.6 1.5 5.5 81 1.6 NNW 32 41 17 22 - - -
29/08:30am 8.6 1.2 5.0 78 1.8 NNW 33 43 18 23 - - -
29/08:00am 9.0 1.3 5.2 77 1.9 NNW 35 44 19 24 - - -
29/07:30am 8.5 0.3 4.7 77 1.9 NNW 37 44 20 24 - - -
29/07:00am 8.4 -0.2 4.8 78 1.8 NNW 39 50 21 27 - - -
29/06:30am 8.4 0.3 5.2 80 1.6 NNW 37 44 20 24 - - -
29/06:00am 8.8 0.2 4.8 76 2.0 NNW 39 50 21 27 - - -
29/05:30am 9.2 0.6 4.6 73 2.3 NNW 39 48 21 26 - - -
29/05:00am 9.5 1.2 4.3 70 2.6 N 37 48 20 26 - - -
29/04:30am 9.8 1.5 4.4 69 2.7 NNW 37 46 20 25 - - -
29/04:00am 10.2 2.3 4.4 67 2.9 NNW 35 46 19 25 - - -
29/03:30am 10.1 2.6 4.3 67 2.9 NNW 33 41 18 22 - - -
29/03:00am 10.3 2.7 4.0 65 3.1 NNW 33 44 18 24 - - -
29/02:30am 10.5 3.2 4.4 66 3.0 N 32 37 17 20 - - -
29/02:00am 10.3 3.8 4.7 68 2.8 N 28 32 15 17 - - -
29/01:30am 10.7 4.6 4.8 67 3.0 N 26 30 14 16 - - -
29/01:00am 10.1 4.9 5.5 73 2.3 N 22 26 12 14 - - -
29/12:30am 9.7 5.5 5.7 76 2.0 N 17 19 9 10 - - -
29/12:00am 10.3 6.0 5.3 71 2.5 N 17 17 9 9 - - -
 
Date/Time
EDT
Temp
°C
App
Temp
°C
Dew
Point
°C
Rel
Hum
%
Delta-T
°C
Wind Press
QNH
hPa
Press
MSL
hPa
Rain since
9am
mm
Dir  Spd
km/h
Gust
km/h
Spd
kts
Gust
kts
28/11:30pm 9.9 6.5 5.9 76 2.1 N 13 13 7 7 - - -
28/11:00pm 10.5 9.0 5.1 69 2.7 N 2 7 1 4 - - -
28/10:30pm 8.6 5.8 5.2 79 1.7 NNW 9 9 5 5 - - -
28/10:00pm 10.3 9.0 5.9 74 2.3 NNW 2 7 1 4 - - -
28/09:30pm 10.1 9.2 6.1 76 2.1 CALM 0 0 0 0 - - -
28/09:00pm 10.0 8.5 6.9 81 1.6 NNE 4 7 2 4 - - -
28/08:30pm 9.2 7.4 7.8 91 0.7 ENE 7 11 4 6 - - -
28/08:00pm 9.9 7.7 7.8 87 1.1 E 9 11 5 6 - - -
28/07:30pm 11.1 9.7 7.4 78 2.0 E 4 7 2 4 - - -
28/07:00pm 12.4 10.6 7.1 70 2.8 SSW 6 11 3 6 - - -
28/06:30pm 13.9 11.0 4.5 53 4.8 W 9 17 5 9 - - -
28/06:00pm 14.5 12.0 5.0 53 4.9 W 7 15 4 8 - - -
28/05:30pm 15.0 12.7 5.0 51 5.2 SW 6 19 3 10 - - -
28/05:00pm 14.7 12.4 4.7 51 5.2 SSE 6 11 3 6 - - -
28/04:30pm 14.2 12.1 3.9 50 5.2 SE 4 11 2 6 - - -
28/04:00pm 13.3 9.8 3.4 51 4.9 WSW 11 17 6 9 - - -
28/03:30pm 13.6 10.8 5.0 56 4.4 SW 9 17 5 9 - - -
28/03:00pm 13.6 10.9 5.7 59 4.1 SW 9 17 5 9 - - -
28/02:30pm 12.7 10.1 6.1 64 3.5 SSW 9 19 5 10 - - -
28/02:00pm 12.0 9.1 4.5 60 3.8 SW 9 19 5 10 - - -
28/01:30pm 12.1 9.5 4.3 59 3.9 SW 7 13 4 7 - - -
28/01:00pm 11.6 8.5 3.6 58 4.0 SSE 9 17 5 9 - - -
28/12:30pm 11.8 9.6 5.2 64 3.4 WSW 6 13 3 7 - - -
28/12:00pm 11.2 9.1 4.0 61 3.6 SSW 4 11 2 6 - - -
28/11:30am 10.0 7.4 4.0 66 3.0 S 7 13 4 7 - - -
28/11:00am 9.4 7.3 4.0 69 2.6 SSE 4 7 2 4 - - -
28/10:30am 8.4 3.9 4.0 74 2.1 S 17 28 9 15 - - -
28/10:00am 8.2 3.4 2.4 67 2.7 S 17 22 9 12 - - -
28/09:30am 7.1 2.7 2.6 73 2.1 SSE 15 19 8 10 - - -
28/09:00am 5.9 1.8 2.5 79 1.6 S 13 19 7 10 - - -
28/08:30am 5.4 1.3 2.1 79 1.5 S 13 26 7 14 - - -
28/08:00am 6.1 -1.3 1.8 74 2.0 SSW 30 43 16 23 - - -
28/07:30am 4.9 -2.5 2.1 82 1.3 SSW 30 39 16 21 - - -
28/07:25am 5.3 -1.6 2.3 81 1.4 SSW 28 39 15 21 - - -
28/07:00am 3.8 -0.8 1.8 87 0.9 SSW 15 20 8 11 - - -
28/06:30am 4.2 -2.1 1.6 83 1.2 SSW 24 35 13 19 - - -
28/06:00am 4.5 -2.2 1.4 80 1.4 SW 26 39 14 21 - - -
28/05:30am 4.4 -0.6 1.4 81 1.3 SW 17 26 9 14 - - -
28/05:00am 4.5 0.3 1.5 81 1.3 W 13 22 7 12 - - -
28/04:30am 3.4 -0.9 1.1 85 1.0 WNW 13 17 7 9 - - -
28/04:00am 4.4 -1.0 -1.2 67 2.3 NW 17 22 9 12 - - -
28/03:30am 3.9 -2.2 -2.3 64 2.5 WNW 20 28 11 15 - - -
28/03:00am 4.3 -3.2 -1.3 67 2.3 NW 28 39 15 21 - - -
28/02:30am 4.2 -3.6 1.9 85 1.0 NW 32 41 17 22 - - -
28/02:00am 3.8 -3.5 2.3 90 0.7 WNW 30 39 16 21 - - -
28/01:30am 4.1 -3.7 2.0 86 0.9 W 32 43 17 23 - - -
28/01:00am 4.1 -3.6 2.3 88 0.8 WNW 32 43 17 23 - - -
28/12:30am 4.2 -3.1 2.6 89 0.7 WNW 30 37 16 20 - - -
28/12:00am 4.3 -3.1 2.0 85 1.0 NW 30 39 16 21 - - -
 
Date/Time
EDT
Temp
°C
App
Temp
°C
Dew
Point
°C
Rel
Hum
%
Delta-T
°C
Wind Press
QNH
hPa
Press
MSL
hPa
Rain since
9am
mm
Dir  Spd
km/h
Gust
km/h
Spd
kts
Gust
kts
27/11:30pm 4.3 -3.2 1.5 82 1.2 NW 30 35 16 19 - - -
27/11:00pm 4.6 -2.9 1.3 79 1.5 NNW 30 37 16 20 - - -
27/10:30pm 4.9 -2.2 1.2 77 1.6 NW 28 35 15 19 - - -
27/10:00pm 4.8 -0.7 0.9 76 1.7 NNW 19 26 10 14 - - -
27/09:30pm 5.2 -1.3 0.6 72 2.0 NNW 24 33 13 18 - - -
27/09:00pm 5.7 0.0 0.7 70 2.2 NNW 20 30 11 16 - - -
27/08:30pm 6.1 0.3 0.0 65 2.7 NNW 20 33 11 18 - - -
27/08:00pm 6.5 -0.1 -0.5 61 3.0 NNW 24 33 13 18 - - -
27/07:30pm 7.5 0.4 -0.9 55 3.6 NW 26 37 14 20 - - -
27/07:00pm 8.2 1.0 -1.9 49 4.3 NNW 26 33 14 18 - - -
27/06:30pm 9.2 2.7 -2.1 45 4.8 NW 22 35 12 19 - - -
27/06:00pm 9.8 2.7 -1.3 46 4.9 NW 26 39 14 21 - - -
27/05:30pm 10.0 3.3 -1.1 46 4.9 NNW 24 39 13 21 - - -
27/05:00pm 10.3 3.9 -1.7 43 5.2 NW 22 32 12 17 - - -
27/04:30pm 11.3 5.4 -0.8 43 5.4 NW 20 39 11 21 - - -
27/04:00pm 10.9 3.6 -2.8 38 5.9 NW 26 41 14 22 - - -
27/03:30pm 10.2 2.7 -4.2 36 5.9 NW 26 41 14 22 - - -
27/03:00pm 10.8 3.0 -3.7 36 6.1 NW 28 37 15 20 - - -
27/02:30pm 10.2 1.3 -5.3 33 6.2 NNW 33 44 18 24 - - -
27/02:00pm 10.9 3.3 -2.5 39 5.8 NNW 28 43 15 23 - - -
27/01:30pm 9.1 0.9 -4.4 38 5.5 NNW 30 43 16 23 - - -
27/01:00pm 9.1 1.4 -3.1 42 5.1 NNW 28 39 15 21 - - -
27/12:30pm 8.4 0.5 -4.7 39 5.2 NW 28 41 15 22 - - -
27/12:00pm 10.0 2.5 -4.4 36 5.9 NW 26 39 14 21 - - -
27/11:30am 8.7 0.1 -13.0 20 7.1 NW 28 37 15 20 - - -
27/11:00am 8.2 0.1 -12.2 22 6.8 NNW 26 39 14 21 - - -
27/10:30am 7.1 -0.4 -8.9 31 5.7 N 24 33 13 18 - - -
27/10:00am 7.2 -0.5 -11.5 25 6.2 NNW 24 39 13 21 - - -
27/09:30am 6.9 -1.3 -12.8 23 6.4 NNW 26 35 14 19 - - -
27/09:00am 5.9 -1.9 -12.1 26 5.8 NNW 24 32 13 17 - - -
27/08:30am 5.0 -2.7 -11.1 30 5.6 NNW 24 33 13 18 - - -
27/08:00am 5.1 -2.5 -16.0 20 6.4 NNW 22 28 12 15 - - -
27/07:30am 4.4 -3.6 -17.2 19 6.3 NW 24 26 13 14 - - -
27/07:00am 3.8 -4.2 -16.5 21 5.9 NW 24 28 13 15 - - -
27/06:30am 3.4 -4.2 -16.8 21 5.8 NW 22 26 12 14 - - -
27/06:00am 3.3 -3.6 -13.4 28 5.2 NW 19 22 10 12 - - -
27/05:30am 3.0 -2.1 -5.1 55 3.2 NNW 13 15 7 8 - - -
27/05:00am 2.3 -3.5 -4.2 62 2.6 NW 17 19 9 10 - - -
27/04:30am 3.4 -2.5 -5.8 51 3.4 WNW 17 20 9 11 - - -
27/04:00am 3.8 -3.0 -9.5 37 4.7 WNW 20 24 11 13 - - -
27/03:30am 4.0 -2.1 -7.4 43 4.3 NW 17 24 9 13 - - -
27/03:00am 4.1 -1.7 -8.9 38 4.7 NW 15 22 8 12 - - -
27/02:30am 4.5 -0.9 -4.2 53 3.4 NW 15 20 8 11 - - -
27/02:00am 4.8 -1.2 -6.7 43 4.2 NW 17 20 9 11 - - -
27/01:30am 4.5 -1.6 -7.3 42 4.2 NW 17 20 9 11 - - -
27/01:00am 4.0 -2.3 -10.8 33 5.0 NW 17 20 9 11 - - -
27/12:30am 3.9 -0.9 -5.6 50 3.5 NW 11 13 6 7 - - -
27/12:00am 4.0 0.2 1.5 84 1.1 NW 11 15 6 8 - - -
 
Date/Time
EDT
Temp
°C
App
Temp
°C
Dew
Point
°C
Rel
Hum
%
Delta-T
°C
Wind Press
QNH
hPa
Press
MSL
hPa
Rain since
9am
mm
Dir  Spd
km/h
Gust
km/h
Spd
kts
Gust
kts
26/11:30pm 2.7 -0.5 0.8 87 0.8 NNW 7 9 4 5 - - -
26/11:00pm 4.0 0.8 0.9 80 1.4 NW 7 9 4 5 - - -
26/10:30pm 4.2 1.0 -0.2 73 1.9 NNW 6 7 3 4 - - -
26/10:00pm 2.5 -0.4 2.4 99 0.0 ESE 7 15 4 8 - - -
26/09:30pm 2.3 -1.5 1.7 96 0.3 SSE 11 15 6 8 - - -
26/09:00pm 2.8 -1.5 1.2 89 0.7 S 13 17 7 9 - - -
26/08:30pm 4.0 -0.9 2.0 87 0.9 SSE 17 22 9 12 - - -
26/08:00pm 4.6 -0.8 1.3 79 1.5 SSE 19 22 10 12 - - -
26/07:30pm 5.8 1.5 1.2 72 2.1 S 13 17 7 9 - - -
26/07:00pm 7.5 3.2 0.7 62 3.1 S 13 19 7 10 - - -
26/06:30pm 8.5 5.1 3.8 72 2.3 SW 11 20 6 11 - - -
26/06:00pm 8.5 4.8 2.5 66 2.8 SSW 11 20 6 11 - - -
26/05:30pm 8.7 4.4 3.5 70 2.5 WSW 15 26 8 14 - - -
26/05:00pm 9.6 6.2 5.8 77 1.9 SW 13 20 7 11 - - -
26/04:30pm 9.0 5.0 4.8 75 2.1 W 15 28 8 15 - - -
26/04:00pm 8.4 4.2 4.0 74 2.1 WNW 15 26 8 14 - - -
26/03:30pm 8.3 3.2 3.9 74 2.1 WNW 20 30 11 16 - - -

Other formats

Comma delimited format used in spreadsheet applications
http://www.bom.gov.au/fwo/IDV60801/IDV60801.94906.axf

JavaScript Object Notation format (JSON) in row-major order
http://www.bom.gov.au/fwo/IDV60801/IDV60801.94906.json

Data quality

Most of these data are generated automatically and are frequently updated. Quality checks on data are not normally performed. It is possible for incorrect values to appear. Refer to information at About Latest Weather Observations and please check the disclaimer before using these data.